createdAt,value
2023-05-11T00:00:42.066Z,20.60
2023-05-11T00:03:09.099Z,23.40
2023-05-11T00:05:36.133Z,21.40
2023-05-11T00:08:02.821Z,24.60
2023-05-11T00:10:29.906Z,22.90
2023-05-11T00:12:56.787Z,25.30
2023-05-11T00:15:23.413Z,22.80
2023-05-11T00:17:50.051Z,20.60
2023-05-11T00:20:17.118Z,20.40
2023-05-11T00:22:44.954Z,24.90
2023-05-11T00:25:12.126Z,22.30
2023-05-11T00:27:38.796Z,23.90
2023-05-11T00:30:06.317Z,26.10
2023-05-11T00:32:32.986Z,26.00
2023-05-11T00:34:59.598Z,22.70
2023-05-11T00:37:26.374Z,24.90
2023-05-11T00:39:53.081Z,26.10
2023-05-11T00:42:19.989Z,25.50
2023-05-11T00:44:47.289Z,25.30
2023-05-11T00:47:14.049Z,24.90
2023-05-11T00:49:40.791Z,23.50
2023-05-11T00:52:07.592Z,24.30
2023-05-11T00:54:35.758Z,25.90
2023-05-11T00:57:04.062Z,24.60
2023-05-11T00:59:30.827Z,26.40
2023-05-11T01:01:57.520Z,25.70
2023-05-11T01:04:24.356Z,25.20
2023-05-11T01:07:18.358Z,25.70
2023-05-11T01:09:51.064Z,27.00
2023-05-11T01:12:30.605Z,25.40
2023-05-11T01:15:07.286Z,25.50
2023-05-11T01:17:43.089Z,26.60
2023-05-11T01:20:12.960Z,27.20
2023-05-11T01:22:58.376Z,27.60
2023-05-11T01:25:43.792Z,25.30
2023-05-11T01:28:26.494Z,25.10
2023-05-11T01:35:03.245Z,27.50
2023-05-11T01:37:30.592Z,27.40
2023-05-11T01:39:59.052Z,29.20
2023-05-11T01:42:36.841Z,28.90
2023-05-11T01:45:03.762Z,27.80
2023-05-11T01:47:31.000Z,30.30
2023-05-11T01:49:57.941Z,27.80
2023-05-11T01:52:25.304Z,28.60
2023-05-11T01:54:52.710Z,31.00
2023-05-11T01:57:19.590Z,30.80
2023-05-11T01:59:46.409Z,28.90
2023-05-11T02:02:13.078Z,29.30
2023-05-11T02:04:39.874Z,27.60
2023-05-11T02:07:07.660Z,30.40
2023-05-11T02:09:34.300Z,30.40
2023-05-11T02:12:01.350Z,28.20
2023-05-11T02:14:29.355Z,31.10
2023-05-11T02:16:56.272Z,29.50
2023-05-11T02:19:22.917Z,29.90
2023-05-11T02:21:49.881Z,31.80
2023-05-11T02:24:16.760Z,29.60
2023-05-11T02:26:43.352Z,31.80
2023-05-11T02:29:09.958Z,30.60
2023-05-11T02:31:38.388Z,31.30
2023-05-11T02:34:08.154Z,31.30
2023-05-11T02:36:34.766Z,33.40
2023-05-11T02:39:07.464Z,31.40
2023-05-11T02:41:34.514Z,31.90
2023-05-11T02:44:02.945Z,28.30
2023-05-11T02:46:33.356Z,30.10
2023-05-11T02:49:01.230Z,31.50
2023-05-11T02:51:33.193Z,32.30
2023-05-11T02:53:59.893Z,29.20
2023-05-11T02:56:29.297Z,30.90
2023-05-11T02:58:56.136Z,31.00
2023-05-11T03:01:26.862Z,30.60
2023-05-11T03:03:57.829Z,31.60
2023-05-11T03:06:25.813Z,29.00
2023-05-11T03:08:52.574Z,28.40
2023-05-11T03:11:19.332Z,31.70
2023-05-11T03:13:46.704Z,29.20
2023-05-11T03:16:14.218Z,27.10
2023-05-11T03:18:40.963Z,29.30
2023-05-11T03:21:07.656Z,27.10
2023-05-11T03:23:35.496Z,26.80
2023-05-11T03:26:03.356Z,27.50
2023-05-11T03:28:29.993Z,28.90
2023-05-11T03:31:06.214Z,27.60
2023-05-11T03:33:32.944Z,27.80
2023-05-11T03:35:59.986Z,26.40
2023-05-11T03:38:28.171Z,28.60
2023-05-11T03:40:55.348Z,26.30
2023-05-11T03:43:22.246Z,25.90
2023-05-11T03:45:52.236Z,27.70
2023-05-11T03:48:19.457Z,24.60
2023-05-11T03:50:46.786Z,25.00
2023-05-11T03:53:15.269Z,25.50
2023-05-11T03:55:42.440Z,24.70
2023-05-11T03:58:09.423Z,23.70
2023-05-11T04:00:40.320Z,23.10
2023-05-11T04:03:08.311Z,22.60
2023-05-11T04:05:35.737Z,24.90
2023-05-11T04:08:05.472Z,23.90
2023-05-11T04:10:32.183Z,22.60
2023-05-11T04:12:58.891Z,24.70
2023-05-11T04:15:25.630Z,21.50
2023-05-11T04:17:52.563Z,21.80
2023-05-11T04:20:19.615Z,22.60
2023-05-11T04:22:46.614Z,19.80
2023-05-11T04:25:14.031Z,21.80
2023-05-11T04:27:40.910Z,20.60
2023-05-11T04:30:08.260Z,20.30
2023-05-11T04:32:35.091Z,21.80
2023-05-11T04:35:02.762Z,20.80
2023-05-11T04:37:33.465Z,19.90
2023-05-11T04:40:01.146Z,19.60
2023-05-11T04:42:30.255Z,19.90
2023-05-11T04:44:57.578Z,20.40
2023-05-11T04:47:24.215Z,18.30
2023-05-11T04:49:52.090Z,18.70
2023-05-11T04:52:18.847Z,18.30
2023-05-11T04:54:48.445Z,17.80
2023-05-11T04:57:16.216Z,18.40
2023-05-11T04:59:43.074Z,17.50
2023-05-11T05:02:11.300Z,17.40
2023-05-11T05:04:37.886Z,17.20
2023-05-11T05:07:04.708Z,16.10
2023-05-11T05:09:31.318Z,16.20
2023-05-11T05:11:57.917Z,16.40
2023-05-11T05:14:24.543Z,18.50
2023-05-11T05:16:51.224Z,18.00
2023-05-11T05:19:17.979Z,13.70
2023-05-11T05:21:44.833Z,13.70
2023-05-11T05:24:12.223Z,12.70
2023-05-11T05:26:39.033Z,9.70
2023-05-11T05:29:06.981Z,10.80
2023-05-11T05:31:34.270Z,12.10
2023-05-11T05:34:02.007Z,8.60
2023-05-11T05:36:28.788Z,11.60
2023-05-11T05:38:55.802Z,7.40
2023-05-11T05:41:23.204Z,6.70
2023-05-11T05:43:51.748Z,5.10
2023-05-11T05:46:18.763Z,4.30
2023-05-11T05:48:45.557Z,4.40
2023-05-11T05:51:12.201Z,4.30
2023-05-11T05:53:38.893Z,4.80
2023-05-11T05:56:06.260Z,5.60
2023-05-11T05:58:33.501Z,4.80
2023-05-11T06:01:00.974Z,4.90
2023-05-11T06:03:29.406Z,4.40
2023-05-11T06:05:56.819Z,4.20
2023-05-11T06:08:23.946Z,6.60
2023-05-11T06:10:51.302Z,5.50
2023-05-11T06:13:18.165Z,5.50
2023-05-11T06:15:44.813Z,4.60
2023-05-11T06:18:17.579Z,5.50
2023-05-11T06:20:44.609Z,3.90
2023-05-11T06:23:11.874Z,4.80
2023-05-11T06:25:39.711Z,4.50
2023-05-11T06:28:06.929Z,6.10
2023-05-11T06:30:34.218Z,4.60
2023-05-11T06:33:01.594Z,4.00
2023-05-11T06:35:29.765Z,4.30
2023-05-11T06:37:57.157Z,4.70
2023-05-11T06:40:23.974Z,4.90
2023-05-11T06:42:50.624Z,5.80
2023-05-11T06:45:17.620Z,5.30
2023-05-11T06:47:44.428Z,5.40
2023-05-11T06:50:11.229Z,5.80
2023-05-11T06:52:38.581Z,5.90
2023-05-11T06:55:06.452Z,5.10
2023-05-11T06:57:33.112Z,5.30
2023-05-11T06:59:59.760Z,6.10
2023-05-11T07:02:26.588Z,5.50
2023-05-11T07:04:53.400Z,5.30
2023-05-11T07:07:20.244Z,7.30
2023-05-11T07:09:47.008Z,5.10
2023-05-11T07:12:13.623Z,4.50
2023-05-11T07:14:40.583Z,4.30
2023-05-11T07:17:07.399Z,4.50
2023-05-11T07:19:34.271Z,5.90
2023-05-11T07:22:02.219Z,5.40
2023-05-11T07:24:29.303Z,4.70
2023-05-11T07:26:57.451Z,5.20
2023-05-11T07:29:24.182Z,4.60
2023-05-11T07:31:51.633Z,6.10
2023-05-11T07:34:18.458Z,4.40
2023-05-11T07:36:46.481Z,5.10
2023-05-11T07:39:13.375Z,4.40
2023-05-11T07:41:40.099Z,5.60
2023-05-11T07:44:06.772Z,5.30
2023-05-11T07:46:33.457Z,6.50
2023-05-11T07:49:14.402Z,4.60
2023-05-11T07:54:11.274Z,4.30
2023-05-11T07:56:37.931Z,5.50
2023-05-11T07:59:04.556Z,5.70
2023-05-11T08:01:32.300Z,5.10
2023-05-11T08:03:59.344Z,4.20
2023-05-11T08:06:26.035Z,4.40
2023-05-11T08:08:52.723Z,4.90
2023-05-11T08:11:19.317Z,4.40
2023-05-11T08:13:45.961Z,4.90
2023-05-11T08:16:12.718Z,5.60
2023-05-11T08:18:39.591Z,4.40
2023-05-11T08:21:07.738Z,5.40
2023-05-11T08:23:34.453Z,5.00
2023-05-11T08:26:01.171Z,4.00
2023-05-11T08:28:27.818Z,4.40
2023-05-11T08:30:55.722Z,4.60
2023-05-11T08:33:36.689Z,5.10
2023-05-11T08:36:08.892Z,3.90
2023-05-11T08:38:36.030Z,3.70
2023-05-11T08:41:03.665Z,6.70
2023-05-11T08:43:30.952Z,4.80
2023-05-11T08:46:00.778Z,5.50
2023-05-11T08:48:27.452Z,4.20
2023-05-11T08:50:54.095Z,4.30
2023-05-11T08:53:20.996Z,5.20
2023-05-11T08:55:47.624Z,3.10
2023-05-11T08:58:19.809Z,3.40
2023-05-11T09:00:47.323Z,4.10
2023-05-11T09:03:14.442Z,4.30
2023-05-11T09:05:41.342Z,5.40
2023-05-11T09:08:08.704Z,4.00
2023-05-11T09:10:36.436Z,3.70
2023-05-11T09:13:03.015Z,4.40
2023-05-11T09:18:03.796Z,6.10
2023-05-11T09:20:34.674Z,3.80
2023-05-11T09:23:01.742Z,4.70
2023-05-11T09:25:30.686Z,4.90
2023-05-11T09:27:57.783Z,4.40
2023-05-11T09:30:24.591Z,4.90
2023-05-11T09:33:01.316Z,5.10
2023-05-11T09:35:32.053Z,4.90
2023-05-11T09:37:59.432Z,4.50
2023-05-11T09:40:28.258Z,4.20
2023-05-11T09:43:01.470Z,5.40
2023-05-11T09:45:39.679Z,5.00
2023-05-11T09:48:07.192Z,4.60
2023-05-11T09:50:34.686Z,3.40
2023-05-11T09:53:01.678Z,4.10
2023-05-11T09:55:29.244Z,5.10
2023-05-11T09:57:57.551Z,4.90
2023-05-11T10:00:27.086Z,4.40
2023-05-11T10:03:14.835Z,4.80
2023-05-11T10:05:41.740Z,4.30
2023-05-11T10:08:08.465Z,4.80
2023-05-11T10:10:35.058Z,4.40
2023-05-11T10:13:02.715Z,3.80
2023-05-11T10:15:30.663Z,4.10
2023-05-11T10:17:59.034Z,5.80
2023-05-11T10:20:25.837Z,4.20
2023-05-11T10:22:56.229Z,3.90
2023-05-11T10:25:23.343Z,4.10
2023-05-11T10:27:50.540Z,5.60
2023-05-11T10:30:17.603Z,4.20
2023-05-11T10:32:46.901Z,4.30
2023-05-11T10:35:14.182Z,3.70
2023-05-11T10:37:42.673Z,3.90
2023-05-11T10:40:10.325Z,3.70
2023-05-11T10:43:14.231Z,5.00
2023-05-11T10:48:22.869Z,8.60
2023-05-11T10:51:20.157Z,5.00
2023-05-11T10:53:59.634Z,4.40
2023-05-11T10:56:34.376Z,4.70
2023-05-11T10:59:34.115Z,4.90
2023-05-11T11:02:01.958Z,4.40
2023-05-11T11:04:42.444Z,6.00
2023-05-11T11:07:09.340Z,4.00
2023-05-11T11:09:57.108Z,4.30
2023-05-11T11:12:24.703Z,3.90
2023-05-11T11:14:55.036Z,5.00
2023-05-11T11:17:24.269Z,4.80
2023-05-11T11:19:50.998Z,4.30
2023-05-11T11:22:39.128Z,4.40
2023-05-11T11:25:06.560Z,4.10
2023-05-11T11:27:45.972Z,3.70
2023-05-11T11:30:16.208Z,4.60
2023-05-11T11:32:45.464Z,4.10
2023-05-11T11:35:41.581Z,4.20
2023-05-11T11:38:12.854Z,3.60
2023-05-11T11:43:21.305Z,3.80
2023-05-11T11:45:57.337Z,4.00
2023-05-11T11:48:30.112Z,3.80
2023-05-11T11:51:07.420Z,4.00
2023-05-11T11:53:41.351Z,4.60
2023-05-11T11:56:15.551Z,4.90
2023-05-11T11:58:45.226Z,3.70
2023-05-11T12:01:12.610Z,4.30
2023-05-11T12:03:40.021Z,4.00
2023-05-11T12:06:08.132Z,4.20
2023-05-11T12:08:35.585Z,4.60
2023-05-11T12:11:03.049Z,4.30
2023-05-11T12:13:30.068Z,4.50
2023-05-11T12:16:12.598Z,4.80
2023-05-11T12:18:40.419Z,4.90
2023-05-11T12:21:07.544Z,3.90
2023-05-11T12:23:34.172Z,4.90
2023-05-11T12:26:07.015Z,3.90
2023-05-11T12:28:33.710Z,4.80
2023-05-11T12:31:00.755Z,3.60
2023-05-11T12:33:27.873Z,4.90
2023-05-11T12:35:55.398Z,4.20
2023-05-11T12:38:22.093Z,4.30
2023-05-11T12:40:50.051Z,4.50
2023-05-11T12:43:18.071Z,4.10
2023-05-11T12:45:45.781Z,3.90
2023-05-11T12:48:12.978Z,3.60
2023-05-11T12:50:45.983Z,4.00
2023-05-11T12:53:19.108Z,4.20
2023-05-11T12:55:46.550Z,4.10
2023-05-11T12:58:14.699Z,4.40
2023-05-11T13:00:57.894Z,3.60
2023-05-11T13:03:25.753Z,4.40
2023-05-11T13:05:52.672Z,4.80
2023-05-11T13:08:19.578Z,3.90
2023-05-11T13:10:47.857Z,4.70
2023-05-11T13:13:29.895Z,5.10
2023-05-11T13:15:56.826Z,3.90
2023-05-11T13:18:24.079Z,4.20
2023-05-11T13:21:04.834Z,3.60
2023-05-11T13:23:31.774Z,4.80
2023-05-11T13:25:58.350Z,5.00
2023-05-11T13:28:25.284Z,3.60
2023-05-11T13:30:59.254Z,6.10
2023-05-11T13:33:26.106Z,4.80
2023-05-11T13:35:52.750Z,4.10
2023-05-11T13:38:19.612Z,4.70
2023-05-11T13:40:46.507Z,5.40
2023-05-11T13:43:13.322Z,5.30
2023-05-11T13:45:42.817Z,4.20
2023-05-11T13:48:09.479Z,5.10
2023-05-11T13:53:00.624Z,4.70
2023-05-11T13:55:28.327Z,5.80
2023-05-11T13:57:56.118Z,5.40
2023-05-11T14:00:22.934Z,5.30
2023-05-11T14:02:50.740Z,4.90
2023-05-11T14:05:17.844Z,5.40
2023-05-11T14:07:48.122Z,4.10
2023-05-11T14:10:17.181Z,5.20
2023-05-11T14:12:44.214Z,4.80
2023-05-11T14:15:11.869Z,5.50
2023-05-11T14:17:38.811Z,5.20
2023-05-11T14:20:06.920Z,4.10
2023-05-11T14:22:33.608Z,4.20
2023-05-11T14:25:01.891Z,5.90
2023-05-11T14:27:28.728Z,4.40
2023-05-11T14:29:55.423Z,3.80
2023-05-11T14:32:22.088Z,4.30
2023-05-11T14:34:48.875Z,3.70
2023-05-11T14:37:15.601Z,4.50
2023-05-11T14:39:42.289Z,4.00
2023-05-11T14:42:10.186Z,4.10
2023-05-11T14:44:36.888Z,3.90
2023-05-11T14:47:05.260Z,4.20
2023-05-11T14:49:32.584Z,4.10
2023-05-11T14:51:59.561Z,4.30
2023-05-11T14:54:26.460Z,3.90
2023-05-11T14:56:56.193Z,4.80
2023-05-11T14:59:27.030Z,5.30
2023-05-11T15:01:53.752Z,4.10
2023-05-11T15:04:20.483Z,3.90
2023-05-11T15:06:47.345Z,4.00
2023-05-11T15:09:14.001Z,5.00
2023-05-11T15:11:40.783Z,4.50
2023-05-11T15:14:07.555Z,5.70
2023-05-11T15:16:34.509Z,4.90
2023-05-11T15:19:01.443Z,5.00
2023-05-11T15:21:28.181Z,4.70
2023-05-11T15:23:54.923Z,3.70
2023-05-11T15:26:22.373Z,3.90
2023-05-11T15:28:49.327Z,4.20
2023-05-11T15:31:16.044Z,4.40
2023-05-11T15:33:43.154Z,4.30
2023-05-11T15:36:11.964Z,3.70
2023-05-11T15:38:39.067Z,4.60
2023-05-11T15:41:05.715Z,3.70
2023-05-11T15:43:32.715Z,4.90
2023-05-11T15:45:59.497Z,3.80
2023-05-11T15:48:26.216Z,4.50
2023-05-11T15:50:52.857Z,3.90
2023-05-11T15:53:19.510Z,5.40
2023-05-11T15:55:50.546Z,4.60
2023-05-11T15:58:18.119Z,4.70
2023-05-11T16:00:44.751Z,3.90
2023-05-11T16:03:12.082Z,4.70
2023-05-11T16:05:39.584Z,4.60
2023-05-11T16:08:06.465Z,3.90
2023-05-11T16:10:33.341Z,5.50
2023-05-11T16:12:59.925Z,5.80
2023-05-11T16:15:26.747Z,4.10
2023-05-11T16:17:53.456Z,4.00
2023-05-11T16:20:20.518Z,3.80
2023-05-11T16:22:48.086Z,4.20
2023-05-11T16:25:14.790Z,3.80
2023-05-11T16:27:41.670Z,4.00
2023-05-11T16:30:22.221Z,4.00
2023-05-11T16:32:51.090Z,3.80
2023-05-11T16:35:18.027Z,4.50
2023-05-11T16:37:44.636Z,3.70
2023-05-11T16:40:11.627Z,5.60
2023-05-11T16:42:38.227Z,4.80
2023-05-11T16:45:05.467Z,6.80
2023-05-11T16:47:32.139Z,6.00
2023-05-11T16:49:58.781Z,5.30
2023-05-11T16:52:25.453Z,6.10
2023-05-11T16:54:52.680Z,4.60
2023-05-11T16:57:19.523Z,4.70
2023-05-11T16:59:46.153Z,4.00
2023-05-11T17:02:12.952Z,4.80
2023-05-11T17:04:39.646Z,4.30
2023-05-11T17:07:08.654Z,4.20
2023-05-11T17:09:35.520Z,4.70
2023-05-11T17:12:07.002Z,7.60
2023-05-11T17:14:33.606Z,6.20
2023-05-11T17:17:00.323Z,5.10
2023-05-11T17:19:27.281Z,6.90
2023-05-11T17:21:53.918Z,4.60
2023-05-11T17:24:21.605Z,4.90
2023-05-11T17:26:48.782Z,5.70
2023-05-11T17:29:16.711Z,8.40
2023-05-11T17:31:44.120Z,5.70
2023-05-11T17:34:13.127Z,6.00
2023-05-11T17:36:40.404Z,8.40
2023-05-11T17:39:08.093Z,7.50
2023-05-11T17:41:34.765Z,7.50
2023-05-11T17:44:01.511Z,6.60
2023-05-11T17:46:30.009Z,6.30
2023-05-11T17:48:57.277Z,7.70
2023-05-11T17:51:23.857Z,6.00
2023-05-11T17:53:50.673Z,5.80
2023-05-11T17:56:17.408Z,5.30
2023-05-11T17:58:44.009Z,5.90
2023-05-11T18:01:12.688Z,5.30
2023-05-11T18:03:40.284Z,4.10
2023-05-11T18:06:07.899Z,4.30
2023-05-11T18:08:36.769Z,5.20
2023-05-11T18:11:03.457Z,7.40
2023-05-11T18:13:31.088Z,7.00
2023-05-11T18:15:58.722Z,5.50
2023-05-11T18:18:25.828Z,6.50
2023-05-11T18:20:52.534Z,6.10
2023-05-11T18:23:19.138Z,6.70
2023-05-11T18:25:46.032Z,5.50
2023-05-11T18:28:12.656Z,8.10
2023-05-11T18:30:39.276Z,7.30
2023-05-11T18:33:06.065Z,6.20
2023-05-11T18:35:32.790Z,6.90
2023-05-11T18:37:59.735Z,8.10
2023-05-11T18:40:27.247Z,6.40
2023-05-11T18:42:53.956Z,8.20
2023-05-11T18:45:20.592Z,12.20
2023-05-11T18:47:47.566Z,8.10
2023-05-11T18:50:14.667Z,7.50
2023-05-11T18:52:41.393Z,8.50
2023-05-11T18:55:08.847Z,7.50
2023-05-11T18:57:35.974Z,10.80
2023-05-11T19:00:03.871Z,8.30
2023-05-11T19:02:31.154Z,11.60
2023-05-11T19:04:57.911Z,12.40
2023-05-11T19:07:24.485Z,8.90
2023-05-11T19:09:51.584Z,7.20
2023-05-11T19:12:19.853Z,7.10
2023-05-11T19:14:47.546Z,7.60
2023-05-11T19:17:14.387Z,4.90
2023-05-11T19:19:41.019Z,6.20
2023-05-11T19:22:09.051Z,6.60
2023-05-11T19:24:36.183Z,7.70
2023-05-11T19:27:07.884Z,7.70
2023-05-11T19:29:35.542Z,6.30
2023-05-11T19:32:03.082Z,7.20
2023-05-11T19:34:29.825Z,7.00
2023-05-11T19:36:56.433Z,7.20
2023-05-11T19:39:23.265Z,7.60
2023-05-11T19:41:49.898Z,8.00
2023-05-11T19:44:16.511Z,8.60
2023-05-11T19:46:47.108Z,10.40
2023-05-11T19:49:15.389Z,10.70
2023-05-11T19:51:42.701Z,11.20
2023-05-11T19:54:09.963Z,11.60
2023-05-11T19:56:36.756Z,14.50
2023-05-11T19:59:04.697Z,14.30
2023-05-11T20:01:31.638Z,15.60
2023-05-11T20:03:58.985Z,13.80
2023-05-11T20:06:26.033Z,12.40
2023-05-11T20:08:53.128Z,11.70
2023-05-11T20:11:20.339Z,12.80
2023-05-11T20:13:47.839Z,12.60
2023-05-11T20:16:15.125Z,11.80
2023-05-11T20:18:42.101Z,11.60
2023-05-11T20:21:08.801Z,10.50
2023-05-11T20:23:37.490Z,11.40
2023-05-11T20:26:04.913Z,12.50
2023-05-11T20:28:32.003Z,10.50
2023-05-11T20:30:59.132Z,10.20
2023-05-11T20:35:55.641Z,10.80
2023-05-11T20:38:22.578Z,10.40
2023-05-11T20:40:49.226Z,13.70
2023-05-11T20:43:16.701Z,14.30
2023-05-11T20:45:43.862Z,11.70
2023-05-11T20:48:10.935Z,11.60
2023-05-11T20:50:39.387Z,11.00
2023-05-11T20:53:06.119Z,10.90
2023-05-11T20:55:32.926Z,11.30
2023-05-11T20:57:59.604Z,10.70
2023-05-11T21:00:26.473Z,11.20
2023-05-11T21:02:53.198Z,12.10
2023-05-11T21:05:20.381Z,15.80
2023-05-11T21:07:46.960Z,10.10
2023-05-11T21:10:14.163Z,10.30
2023-05-11T21:12:41.035Z,10.60
2023-05-11T21:15:08.493Z,12.30
2023-05-11T21:17:35.972Z,10.30
2023-05-11T21:20:05.112Z,12.30
2023-05-11T21:22:33.454Z,11.30
2023-05-11T21:25:00.126Z,11.60
2023-05-11T21:27:26.951Z,13.10
2023-05-11T21:29:53.664Z,13.00
2023-05-11T21:32:20.272Z,12.50
2023-05-11T21:34:46.992Z,13.20
2023-05-11T21:37:14.866Z,12.30
2023-05-11T21:39:42.093Z,15.10
2023-05-11T21:42:08.701Z,13.40
2023-05-11T21:44:35.418Z,16.40
2023-05-11T21:47:02.160Z,16.50
2023-05-11T21:49:28.997Z,13.00
2023-05-11T21:51:55.660Z,12.90
2023-05-11T21:54:22.542Z,15.10
2023-05-11T21:56:50.351Z,15.40
2023-05-11T21:59:17.857Z,13.30
2023-05-11T22:01:49.263Z,13.30
2023-05-11T22:04:16.040Z,13.30
2023-05-11T22:06:43.762Z,15.20
2023-05-11T22:09:10.349Z,15.60
2023-05-11T22:11:40.035Z,15.30
2023-05-11T22:14:06.774Z,14.70
2023-05-11T22:16:33.428Z,16.60
2023-05-11T22:19:00.072Z,16.70
2023-05-11T22:21:28.009Z,14.70
2023-05-11T22:23:54.604Z,19.10
2023-05-11T22:26:21.215Z,16.00
2023-05-11T22:28:47.938Z,17.90
2023-05-11T22:31:14.538Z,19.40
2023-05-11T22:33:41.369Z,20.60
2023-05-11T22:36:08.451Z,21.80
2023-05-11T22:38:37.567Z,21.20
2023-05-11T22:41:05.002Z,19.60
2023-05-11T22:43:31.963Z,19.90
2023-05-11T22:45:58.690Z,21.70
2023-05-11T22:48:25.412Z,20.40
2023-05-11T22:50:52.125Z,22.90
2023-05-11T22:53:19.944Z,21.50
2023-05-11T22:55:47.478Z,21.20
2023-05-11T22:58:14.794Z,20.00
2023-05-11T23:00:41.453Z,19.40
2023-05-11T23:03:08.312Z,18.60
2023-05-11T23:05:35.244Z,20.20
2023-05-11T23:08:01.833Z,22.40
2023-05-11T23:10:28.984Z,20.10
2023-05-11T23:12:56.205Z,21.80
2023-05-11T23:15:22.885Z,21.20
2023-05-11T23:17:49.597Z,21.80
2023-05-11T23:20:16.919Z,24.20
2023-05-11T23:22:43.858Z,23.10
2023-05-11T23:25:10.928Z,20.70
2023-05-11T23:27:37.685Z,20.70
2023-05-11T23:30:05.964Z,22.20
2023-05-11T23:32:33.178Z,22.30
2023-05-11T23:34:59.995Z,21.50
2023-05-11T23:37:26.767Z,22.10
2023-05-11T23:39:53.535Z,20.60
2023-05-11T23:42:20.227Z,19.70
2023-05-11T23:44:46.902Z,20.40
2023-05-11T23:47:13.797Z,21.50
2023-05-11T23:49:41.022Z,20.10
2023-05-11T23:52:07.821Z,21.70
2023-05-11T23:54:34.457Z,21.60
2023-05-11T23:57:02.222Z,20.20
2023-05-11T23:59:28.815Z,20.90
